Terminal Aerodrome Forecast
Issued by NWS

Home | Current Version | Previous Version | Graphics & Text | Print | Product List | Glossary On
Versions: 1 2 3 4 5 6 7 8 9 10 11 12 13 14
000
FTUS43 KLSX 231006 AAA
TAFSUS
TAF AMD
KSUS 231006Z 2310/2406 00000KT 5SM BR SKC
      TEMPO 2311/2313 2SM BR SCT002
     FM231400 VRB03KT P6SM SKC
     FM231800 11006KT P6SM FEW050
     FM240100 VRB03KT P6SM SKC=

USA.gov is the U.S. government's official web portal to all federal, state and local government web resources and services.